Time;durP1;ratioP1;P1;durP2;ratioP2;P2;SDS_P1;SDS_P2;PMS_P1;PMS_P2;Temp;Humidity;BMP_temperature;BMP_pressure;BME280_temperature;BME280_humidity;BME280_pressure;Samples;Min_cycle;Max_cycle;Signal;HPM_P1;HPM_P2
2021/12/08 00:00:46;;;;;;;56.30;41.20;;;;;;;;;;5059106;28;24824;-58
2021/12/08 00:03:13;;;;;;;60.50;41.10;;;;;;;;;;5057819;28;24442;-58
2021/12/08 00:05:39;;;;;;;56.33;40.25;;;;;;;;;;5056954;28;24418;-58
2021/12/08 00:08:05;;;;;;;59.70;40.90;;;;;;;;;;5056748;28;24573;-58
2021/12/08 00:13:04;;;;;;;56.60;40.03;;;;;;;;;;5060511;28;24460;-58
2021/12/08 00:15:37;;;;;;;58.35;39.72;;;;;;;;;;5054542;28;24430;-58
2021/12/08 00:18:03;;;;;;;61.20;42.45;;;;;;;;;;5060199;28;24414;-58
2021/12/08 00:20:31;;;;;;;62.20;42.22;;;;;;;;;;5048517;28;24450;-58
2021/12/08 00:22:57;;;;;;;61.15;41.70;;;;;;;;;;5056863;28;24555;-57
2021/12/08 00:25:22;;;;;;;61.10;41.20;;;;;;;;;;5062185;28;25216;-58
2021/12/08 00:27:47;;;;;;;58.07;40.70;;;;;;;;;;5060217;28;24398;-58
2021/12/08 00:30:12;;;;;;;60.83;42.53;;;;;;;;;;5056227;28;24955;-57
2021/12/08 00:32:37;;;;;;;56.37;40.43;;;;;;;;;;5056828;28;24476;-58
2021/12/08 00:35:06;;;;;;;50.10;36.00;;;;;;;;;;5054260;28;24429;-59
2021/12/08 00:37:32;;;;;;;49.95;36.53;;;;;;;;;;5061026;28;24480;-58
2021/12/08 00:39:57;;;;;;;55.57;39.60;;;;;;;;;;5045311;28;24785;-58
2021/12/08 00:42:22;;;;;;;59.97;41.55;;;;;;;;;;5060548;28;24379;-58
2021/12/08 00:44:48;;;;;;;60.07;41.80;;;;;;;;;;5053256;28;25039;-58
2021/12/08 00:47:14;;;;;;;56.97;40.63;;;;;;;;;;5049799;28;24472;-58
2021/12/08 00:49:39;;;;;;;55.80;40.10;;;;;;;;;;5053854;28;24426;-58
2021/12/08 00:52:05;;;;;;;52.33;37.97;;;;;;;;;;5051971;28;24404;-58
2021/12/08 00:54:31;;;;;;;52.90;38.35;;;;;;;;;;5040233;28;24591;-58
2021/12/08 00:56:57;;;;;;;46.57;35.13;;;;;;;;;;5042581;28;24399;-58
2021/12/08 00:59:22;;;;;;;46.50;34.20;;;;;;;;;;5053315;28;24430;-58
2021/12/08 01:01:47;;;;;;;42.95;32.15;;;;;;;;;;5058812;28;24999;-58
2021/12/08 01:04:13;;;;;;;45.57;33.07;;;;;;;;;;5052508;28;24989;-58
2021/12/08 01:06:38;;;;;;;45.08;31.73;;;;;;;;;;5051421;28;24415;-58
2021/12/08 01:09:03;;;;;;;44.90;31.63;;;;;;;;;;5050846;28;24423;-58
2021/12/08 01:11:29;;;;;;;46.87;34.33;;;;;;;;;;5059158;28;24417;-58
2021/12/08 01:13:54;;;;;;;46.33;32.13;;;;;;;;;;5053511;28;24415;-57
2021/12/08 01:16:20;;;;;;;47.70;35.20;;;;;;;;;;5037528;28;24383;-58
2021/12/08 01:18:45;;;;;;;44.40;31.90;;;;;;;;;;5043145;28;24518;-58
2021/12/08 01:21:10;;;;;;;43.60;32.87;;;;;;;;;;5049536;28;24488;-58
2021/12/08 01:23:36;;;;;;;48.85;34.65;;;;;;;;;;5045356;28;24707;-58
2021/12/08 01:26:03;;;;;;;43.03;31.40;;;;;;;;;;5039765;28;24941;-58
2021/12/08 01:28:28;;;;;;;47.63;33.25;;;;;;;;;;5044145;28;24497;-58
2021/12/08 01:30:54;;;;;;;49.40;34.43;;;;;;;;;;5059872;28;25051;-58
2021/12/08 01:33:20;;;;;;;47.45;33.45;;;;;;;;;;5058630;28;25078;-57
2021/12/08 01:35:45;;;;;;;47.75;33.83;;;;;;;;;;5061951;28;24529;-58
2021/12/08 01:38:10;;;;;;;48.53;35.40;;;;;;;;;;5051234;28;24410;-58
2021/12/08 01:40:35;;;;;;;48.55;34.58;;;;;;;;;;5050734;28;24403;-58
2021/12/08 01:43:03;;;;;;;45.60;33.00;;;;;;;;;;5054626;28;24499;-58
2021/12/08 01:48:14;;;;;;;47.33;34.35;;;;;;;;;;5059223;28;24429;-58
2021/12/08 01:50:41;;;;;;;47.50;34.30;;;;;;;;;;5056449;28;24410;-57
2021/12/08 01:53:07;;;;;;;48.10;34.33;;;;;;;;;;5059500;28;25045;-57
2021/12/08 01:55:33;;;;;;;48.03;34.85;;;;;;;;;;5054244;28;24427;-58
2021/12/08 01:57:58;;;;;;;44.70;33.65;;;;;;;;;;5062956;28;24750;-57
2021/12/08 02:00:26;;;;;;;44.50;32.57;;;;;;;;;;5061959;28;24407;-58
2021/12/08 02:02:51;;;;;;;44.20;32.60;;;;;;;;;;5061268;28;24491;-58
2021/12/08 02:05:17;;;;;;;46.90;34.60;;;;;;;;;;5052285;28;25313;-58
2021/12/08 02:07:42;;;;;;;45.90;33.80;;;;;;;;;;5055966;28;24421;-58
2021/12/08 02:10:08;;;;;;;43.23;32.90;;;;;;;;;;5058115;28;24630;-58
2021/12/08 02:12:37;;;;;;;47.30;34.25;;;;;;;;;;5058615;28;24447;-58
2021/12/08 02:15:03;;;;;;;41.35;31.80;;;;;;;;;;5062592;28;24516;-57
2021/12/08 02:17:29;;;;;;;41.53;31.23;;;;;;;;;;5044250;28;24398;-58
2021/12/08 02:19:54;;;;;;;42.38;31.02;;;;;;;;;;5046556;28;24507;-57
2021/12/08 02:22:19;;;;;;;40.60;30.20;;;;;;;;;;5040927;28;24424;-56
2021/12/08 02:24:44;;;;;;;39.63;30.63;;;;;;;;;;5043182;28;25021;-57
2021/12/08 02:27:10;;;;;;;43.03;32.63;;;;;;;;;;5048778;28;24466;-56
2021/12/08 02:29:42;;;;;;;40.47;30.73;;;;;;;;;;5052653;28;24407;-56
2021/12/08 02:32:24;;;;;;;38.58;30.30;;;;;;;;;;5064323;28;24807;-56
2021/12/08 02:46:44;;;;;;;40.30;31.00;;;;;;;;;;5052817;28;24450;-57
2021/12/08 02:48:30;;;;;;;39.53;30.50;;;;;;;;;;5060671;28;24450;-57
2021/12/08 02:50:56;;;;;;;38.60;29.67;;;;;;;;;;5049809;28;24972;-57
2021/12/08 02:53:21;;;;;;;37.93;30.47;;;;;;;;;;5059497;28;24522;-57
2021/12/08 02:55:46;;;;;;;39.60;30.30;;;;;;;;;;5041897;28;24427;-57
2021/12/08 02:58:12;;;;;;;35.57;28.00;;;;;;;;;;5050566;28;24555;-57
2021/12/08 03:00:39;;;;;;;36.90;28.87;;;;;;;;;;5049975;28;24414;-59
2021/12/08 03:03:05;;;;;;;38.72;28.88;;;;;;;;;;5056264;28;25007;-57
2021/12/08 03:05:30;;;;;;;36.88;28.38;;;;;;;;;;5048427;28;24525;-57
2021/12/08 03:07:56;;;;;;;34.03;26.60;;;;;;;;;;5041767;28;24469;-57
2021/12/08 03:10:24;;;;;;;36.67;28.60;;;;;;;;;;5044509;28;24808;-57
2021/12/08 03:12:49;;;;;;;35.78;28.58;;;;;;;;;;5056901;28;24426;-59
2021/12/08 03:15:14;;;;;;;37.40;29.20;;;;;;;;;;5058865;28;24427;-58
2021/12/08 03:17:40;;;;;;;35.97;26.97;;;;;;;;;;5048570;28;24442;-58
2021/12/08 03:20:07;;;;;;;36.83;27.83;;;;;;;;;;5062957;28;24410;-57
2021/12/08 03:22:35;;;;;;;34.67;27.50;;;;;;;;;;5054538;28;24407;-58
2021/12/08 03:25:03;;;;;;;33.88;27.33;;;;;;;;;;5050760;28;24416;-58
2021/12/08 03:27:35;;;;;;;35.63;26.73;;;;;;;;;;5054184;28;24411;-58
2021/12/08 03:30:13;;;;;;;34.50;27.80;;;;;;;;;;5056463;28;25032;-57
2021/12/08 03:32:39;;;;;;;36.03;28.10;;;;;;;;;;5043445;28;24473;-57
2021/12/08 03:35:12;;;;;;;34.72;26.45;;;;;;;;;;5043867;28;24477;-57
2021/12/08 03:37:39;;;;;;;31.73;26.10;;;;;;;;;;5050432;28;24411;-58
2021/12/08 03:40:07;;;;;;;32.00;26.90;;;;;;;;;;5049432;28;24506;-58
2021/12/08 03:42:36;;;;;;;30.40;24.52;;;;;;;;;;5042909;28;24407;-58
2021/12/08 03:45:06;;;;;;;32.08;26.45;;;;;;;;;;5059486;28;24479;-58
2021/12/08 03:47:31;;;;;;;34.80;27.45;;;;;;;;;;5046471;28;24561;-58
2021/12/08 03:49:58;;;;;;;30.13;26.00;;;;;;;;;;5056637;28;24547;-57
2021/12/08 03:52:23;;;;;;;30.95;25.50;;;;;;;;;;5039499;28;24892;-58
2021/12/08 03:54:49;;;;;;;31.98;25.80;;;;;;;;;;5056049;28;25152;-57
2021/12/08 03:57:14;;;;;;;31.53;26.23;;;;;;;;;;5049893;28;24411;-57
2021/12/08 03:59:39;;;;;;;30.90;26.30;;;;;;;;;;5058993;28;24422;-58
2021/12/08 04:02:04;;;;;;;32.22;26.05;;;;;;;;;;5050913;28;24506;-57
2021/12/08 04:04:30;;;;;;;31.37;24.50;;;;;;;;;;5048578;28;25476;-58
2021/12/08 04:06:57;;;;;;;31.10;25.13;;;;;;;;;;5055826;28;24522;-57
2021/12/08 04:09:34;;;;;;;29.33;23.73;;;;;;;;;;5062155;28;24426;-58
2021/12/08 04:11:59;;;;;;;29.20;23.80;;;;;;;;;;5061000;28;24797;-58
2021/12/08 04:14:27;;;;;;;28.03;24.10;;;;;;;;;;5062633;28;24572;-58
2021/12/08 04:16:58;;;;;;;29.60;23.83;;;;;;;;;;5057704;28;24522;-58
2021/12/08 04:19:23;;;;;;;30.45;25.10;;;;;;;;;;5058716;28;24510;-57
2021/12/08 04:21:50;;;;;;;29.40;23.10;;;;;;;;;;5057671;28;24908;-58
2021/12/08 04:24:16;;;;;;;28.45;24.85;;;;;;;;;;5046703;28;24430;-58
2021/12/08 04:26:52;;;;;;;31.20;25.87;;;;;;;;;;5061933;28;25008;-57
2021/12/08 04:29:21;;;;;;;30.65;25.40;;;;;;;;;;5051612;28;24418;-57
2021/12/08 04:31:48;;;;;;;29.95;23.80;;;;;;;;;;5047551;28;24422;-58
2021/12/08 04:34:18;;;;;;;29.83;24.55;;;;;;;;;;5060174;28;24516;-57
2021/12/08 04:36:47;;;;;;;32.00;24.85;;;;;;;;;;5057707;28;24414;-57
2021/12/08 04:39:20;;;;;;;31.85;24.88;;;;;;;;;;5057887;28;24750;-58
2021/12/08 04:41:51;;;;;;;29.30;23.25;;;;;;;;;;5058498;28;24552;-57
2021/12/08 04:50:07;;;;;;;32.35;25.40;;;;;;;;;;5060880;28;24487;-61
2021/12/08 04:52:31;;;;;;;34.08;26.20;;;;;;;;;;5061133;28;24422;-57
2021/12/08 05:00:44;;;;;;;29.50;24.10;;;;;;;;;;5061406;28;24472;-57
2021/12/08 05:03:41;;;;;;;29.77;25.20;;;;;;;;;;5060849;28;24393;-58
2021/12/08 05:09:06;;;;;;;31.33;24.20;;;;;;;;;;5023687;28;24431;-58
2021/12/08 05:11:33;;;;;;;28.38;23.45;;;;;;;;;;5060512;28;25003;-58
2021/12/08 05:14:01;;;;;;;28.50;23.07;;;;;;;;;;5052326;28;24715;-57
2021/12/08 05:16:28;;;;;;;26.10;22.55;;;;;;;;;;5052736;28;24432;-58
2021/12/08 05:18:54;;;;;;;29.60;22.05;;;;;;;;;;5050148;28;24422;-58
2021/12/08 05:21:29;;;;;;;27.90;22.33;;;;;;;;;;5063645;28;24407;-58
2021/12/08 05:23:54;;;;;;;24.85;21.30;;;;;;;;;;5059536;28;24439;-58
2021/12/08 05:26:24;;;;;;;23.97;20.43;;;;;;;;;;5060546;28;24492;-59
2021/12/08 05:28:50;;;;;;;26.60;21.93;;;;;;;;;;5061374;28;24582;-59
2021/12/08 05:31:21;;;;;;;27.25;22.50;;;;;;;;;;5067606;28;24509;-59
2021/12/08 05:33:47;;;;;;;25.08;20.80;;;;;;;;;;5062676;28;24445;-62
2021/12/08 05:36:13;;;;;;;22.98;19.90;;;;;;;;;;5055080;28;24441;-59
2021/12/08 05:38:39;;;;;;;23.83;20.73;;;;;;;;;;5075124;28;24511;-59
2021/12/08 05:41:07;;;;;;;26.00;21.30;;;;;;;;;;5057250;28;24458;-59
2021/12/08 05:43:32;;;;;;;27.48;22.23;;;;;;;;;;5065873;28;24407;-59
2021/12/08 05:45:58;;;;;;;26.40;21.43;;;;;;;;;;5062800;28;24484;-59
2021/12/08 05:48:23;;;;;;;27.97;21.37;;;;;;;;;;5056291;28;24479;-59
2021/12/08 05:50:53;;;;;;;25.80;21.70;;;;;;;;;;5071953;28;24414;-59
2021/12/08 05:53:20;;;;;;;26.07;22.40;;;;;;;;;;5057651;28;24952;-59
2021/12/08 05:55:45;;;;;;;27.65;22.20;;;;;;;;;;5059633;28;24545;-59
2021/12/08 05:58:13;;;;;;;28.83;23.50;;;;;;;;;;5065769;28;25115;-58
2021/12/08 06:00:44;;;;;;;24.60;21.52;;;;;;;;;;5071234;28;24419;-58
2021/12/08 06:03:10;;;;;;;26.15;21.38;;;;;;;;;;5053239;28;24564;-58
2021/12/08 06:05:35;;;;;;;25.75;22.17;;;;;;;;;;5054705;28;24556;-58
2021/12/08 06:08:01;;;;;;;26.70;22.10;;;;;;;;;;5054419;28;24526;-58
2021/12/08 06:10:29;;;;;;;26.67;22.97;;;;;;;;;;5059717;28;24411;-58
2021/12/08 06:12:55;;;;;;;26.95;22.75;;;;;;;;;;5058589;28;24785;-58
2021/12/08 06:15:20;;;;;;;27.50;22.63;;;;;;;;;;5061192;28;24430;-58
2021/12/08 06:17:46;;;;;;;28.43;23.40;;;;;;;;;;5051892;28;24418;-59
2021/12/08 06:20:12;;;;;;;27.13;21.17;;;;;;;;;;5058758;28;24418;-58
2021/12/08 06:22:38;;;;;;;25.20;20.88;;;;;;;;;;5062154;28;24425;-59
2021/12/08 06:25:04;;;;;;;25.87;21.53;;;;;;;;;;5067514;28;24611;-58
2021/12/08 06:27:29;;;;;;;25.50;20.83;;;;;;;;;;5063691;28;24546;-58
2021/12/08 06:29:54;;;;;;;25.83;21.70;;;;;;;;;;5071972;28;24768;-58
2021/12/08 06:32:20;;;;;;;24.70;20.60;;;;;;;;;;5079970;28;24784;-58
2021/12/08 06:34:47;;;;;;;28.83;21.90;;;;;;;;;;5070360;28;24438;-55
2021/12/08 06:37:33;;;;;;;26.90;21.25;;;;;;;;;;5070031;28;24959;-54
2021/12/08 06:40:07;;;;;;;26.48;20.17;;;;;;;;;;5063328;28;25075;-55
2021/12/08 06:42:34;;;;;;;26.10;20.37;;;;;;;;;;5070168;28;24528;-55
2021/12/08 06:44:59;;;;;;;24.13;18.83;;;;;;;;;;5064412;28;24442;-59
2021/12/08 06:47:27;;;;;;;21.07;17.93;;;;;;;;;;5067488;28;24420;-59
2021/12/08 06:49:53;;;;;;;23.38;18.65;;;;;;;;;;5069149;28;24475;-59
2021/12/08 06:52:23;;;;;;;26.67;20.77;;;;;;;;;;5073245;28;24824;-59
2021/12/08 06:54:52;;;;;;;23.88;18.98;;;;;;;;;;5071688;28;24603;-58
2021/12/08 06:57:21;;;;;;;24.48;19.98;;;;;;;;;;5056809;28;24506;-58
2021/12/08 07:00:04;;;;;;;23.80;18.85;;;;;;;;;;5055578;28;24422;-58
2021/12/08 07:05:26;;;;;;;25.30;20.50;;;;;;;;;;5051462;28;24421;-59
2021/12/08 07:07:53;;;;;;;23.67;18.20;;;;;;;;;;5057516;28;24476;-59
2021/12/08 07:10:22;;;;;;;22.27;19.48;;;;;;;;;;5057257;28;24398;-58
2021/12/08 07:12:56;;;;;;;27.40;22.17;;;;;;;;;;5058657;28;24812;-58
2021/12/08 07:15:28;;;;;;;23.48;20.90;;;;;;;;;;5059575;28;24514;-59
2021/12/08 07:17:57;;;;;;;24.42;20.77;;;;;;;;;;5059378;28;24464;-58
2021/12/08 07:22:53;;;;;;;25.17;21.30;;;;;;;;;;5059520;28;24425;-59
2021/12/08 07:25:20;;;;;;;24.43;20.20;;;;;;;;;;5067842;28;24498;-58
2021/12/08 07:27:46;;;;;;;22.55;20.10;;;;;;;;;;5047775;28;24514;-58
2021/12/08 07:30:17;;;;;;;25.65;20.60;;;;;;;;;;5065023;28;24974;-58
2021/12/08 07:32:43;;;;;;;23.38;20.88;;;;;;;;;;5074462;28;24425;-58
2021/12/08 07:35:12;;;;;;;23.90;21.13;;;;;;;;;;5055475;28;24534;-58
2021/12/08 07:37:38;;;;;;;25.75;22.10;;;;;;;;;;5057902;28;24703;-58
2021/12/08 07:40:03;;;;;;;23.73;20.93;;;;;;;;;;5051617;28;24429;-58
2021/12/08 07:42:31;;;;;;;25.25;20.38;;;;;;;;;;5037022;28;24406;-59
2021/12/08 07:44:58;;;;;;;23.83;20.65;;;;;;;;;;5041985;28;24464;-58
2021/12/08 07:47:24;;;;;;;24.67;19.50;;;;;;;;;;5063762;28;24926;-59
2021/12/08 07:49:53;;;;;;;24.50;19.77;;;;;;;;;;5057684;28;24413;-59
2021/12/08 07:52:20;;;;;;;23.73;19.98;;;;;;;;;;5060820;28;24403;-58
2021/12/08 07:54:46;;;;;;;21.97;18.17;;;;;;;;;;5045709;28;24446;-58
2021/12/08 07:57:16;;;;;;;19.80;17.70;;;;;;;;;;5063494;28;25127;-58
2021/12/08 07:59:43;;;;;;;21.87;18.53;;;;;;;;;;5065582;28;24836;-58
2021/12/08 08:02:09;;;;;;;21.48;18.60;;;;;;;;;;5077953;28;24397;-58
2021/12/08 08:04:35;;;;;;;20.10;17.20;;;;;;;;;;5060733;28;24705;-58
2021/12/08 08:07:01;;;;;;;20.25;18.10;;;;;;;;;;5057867;28;24479;-58
2021/12/08 08:09:28;;;;;;;19.95;17.85;;;;;;;;;;5067924;28;24406;-59
2021/12/08 08:11:57;;;;;;;21.90;18.25;;;;;;;;;;5072749;28;24421;-59
2021/12/08 08:14:24;;;;;;;20.27;17.30;;;;;;;;;;5055298;28;24415;-58
2021/12/08 08:16:54;;;;;;;18.60;16.60;;;;;;;;;;5057169;28;24657;-58
2021/12/08 08:19:26;;;;;;;18.67;16.35;;;;;;;;;;5064971;28;24823;-59
2021/12/08 08:21:51;;;;;;;19.77;17.02;;;;;;;;;;5061892;28;24836;-58
2021/12/08 08:24:17;;;;;;;18.30;16.40;;;;;;;;;;5056036;28;24464;-59
2021/12/08 08:26:43;;;;;;;19.08;16.98;;;;;;;;;;5055903;28;24427;-58
2021/12/08 08:29:08;;;;;;;18.50;16.60;;;;;;;;;;5055880;28;24403;-59
2021/12/08 08:31:37;;;;;;;19.38;17.27;;;;;;;;;;5063579;28;24422;-59
2021/12/08 08:34:03;;;;;;;19.23;16.85;;;;;;;;;;5058620;28;24990;-58
2021/12/08 08:36:30;;;;;;;17.90;16.10;;;;;;;;;;5058460;28;24504;-59
2021/12/08 08:38:58;;;;;;;17.40;15.57;;;;;;;;;;5068929;28;24438;-59
2021/12/08 08:41:26;;;;;;;17.60;15.70;;;;;;;;;;5071283;28;24505;-58
2021/12/08 08:43:52;;;;;;;17.30;15.60;;;;;;;;;;5044391;28;24441;-58
2021/12/08 08:46:21;;;;;;;16.77;14.95;;;;;;;;;;5053750;28;24434;-58
2021/12/08 08:48:51;;;;;;;16.50;14.80;;;;;;;;;;5059965;28;24421;-58
2021/12/08 08:51:27;;;;;;;17.00;15.30;;;;;;;;;;5066327;28;25320;-58
2021/12/08 08:53:53;;;;;;;16.15;14.45;;;;;;;;;;5057844;28;25223;-58
2021/12/08 08:56:21;;;;;;;17.20;14.65;;;;;;;;;;5058140;28;24422;-58
2021/12/08 08:58:49;;;;;;;16.60;14.90;;;;;;;;;;5068982;28;24438;-58
2021/12/08 09:01:20;;;;;;;16.70;14.98;;;;;;;;;;5067581;28;25009;-59
2021/12/08 09:03:52;;;;;;;18.58;15.27;;;;;;;;;;5055334;28;24415;-59
2021/12/08 09:06:19;;;;;;;16.10;14.20;;;;;;;;;;5061295;28;24414;-58
2021/12/08 09:08:45;;;;;;;16.90;15.10;;;;;;;;;;5058820;28;24418;-58
2021/12/08 09:11:28;;;;;;;15.67;14.00;;;;;;;;;;5060530;28;24830;-59
2021/12/08 09:13:53;;;;;;;16.85;15.00;;;;;;;;;;5057056;28;24418;-59
2021/12/08 09:16:27;;;;;;;16.33;14.63;;;;;;;;;;5066525;28;24423;-59
2021/12/08 09:19:14;;;;;;;16.50;14.80;;;;;;;;;;5064124;28;24422;-59
2021/12/08 09:21:56;;;;;;;15.35;13.75;;;;;;;;;;5058331;28;24498;-58
2021/12/08 09:24:31;;;;;;;15.98;14.27;;;;;;;;;;5056959;28;24773;-59
2021/12/08 09:26:57;;;;;;;15.48;13.88;;;;;;;;;;5056382;28;24931;-59
2021/12/08 09:29:31;;;;;;;14.55;13.05;;;;;;;;;;5055879;28;24421;-59
2021/12/08 09:32:09;;;;;;;15.65;13.55;;;;;;;;;;5059163;28;24411;-59
2021/12/08 09:34:37;;;;;;;17.08;13.45;;;;;;;;;;5060392;28;24443;-60
2021/12/08 09:37:10;;;;;;;17.30;14.40;;;;;;;;;;5040335;28;24948;-58
2021/12/08 09:39:37;;;;;;;15.80;14.20;;;;;;;;;;5058498;28;24426;-59
2021/12/08 09:42:07;;;;;;;17.00;14.10;;;;;;;;;;5052598;28;24399;-59
2021/12/08 09:44:35;;;;;;;16.33;14.37;;;;;;;;;;5056344;28;24460;-58
2021/12/08 09:47:00;;;;;;;15.05;13.45;;;;;;;;;;5054424;28;25109;-58
2021/12/08 09:49:26;;;;;;;15.80;13.70;;;;;;;;;;5060784;28;24513;-58
2021/12/08 09:51:52;;;;;;;16.85;13.93;;;;;;;;;;5055648;28;24425;-58
2021/12/08 09:54:18;;;;;;;16.80;14.20;;;;;;;;;;5061755;28;24488;-58
2021/12/08 09:56:45;;;;;;;16.08;14.13;;;;;;;;;;5059430;28;24495;-58
2021/12/08 09:59:10;;;;;;;16.52;13.93;;;;;;;;;;5071036;28;24422;-58
2021/12/08 10:01:39;;;;;;;15.50;13.75;;;;;;;;;;5068238;28;24588;-59
2021/12/08 10:04:04;;;;;;;17.38;14.10;;;;;;;;;;5069217;28;25197;-59
2021/12/08 10:06:29;;;;;;;16.17;14.47;;;;;;;;;;5066105;28;24441;-58
2021/12/08 10:08:59;;;;;;;17.00;14.33;;;;;;;;;;5052439;28;24833;-58
2021/12/08 10:11:26;;;;;;;15.87;13.50;;;;;;;;;;5059813;28;24434;-59
2021/12/08 10:13:52;;;;;;;16.53;14.10;;;;;;;;;;5069191;28;24410;-58
2021/12/08 10:16:17;;;;;;;17.93;14.97;;;;;;;;;;5062724;28;24454;-58
2021/12/08 10:18:43;;;;;;;18.83;16.83;;;;;;;;;;5061436;28;24448;-59
2021/12/08 10:21:08;;;;;;;16.65;14.68;;;;;;;;;;5065247;28;24415;-59
2021/12/08 10:23:35;;;;;;;19.58;17.48;;;;;;;;;;5061280;28;24406;-59
2021/12/08 10:26:03;;;;;;;20.13;17.65;;;;;;;;;;5066146;28;24441;-58
2021/12/08 10:28:30;;;;;;;18.63;16.35;;;;;;;;;;5063270;28;25003;-59
2021/12/08 10:31:01;;;;;;;19.70;17.13;;;;;;;;;;5061840;28;24485;-59
2021/12/08 10:33:37;;;;;;;19.25;17.00;;;;;;;;;;5068023;28;24438;-59
2021/12/08 10:36:15;;;;;;;18.23;15.98;;;;;;;;;;5060227;28;24422;-57
2021/12/08 10:38:40;;;;;;;18.58;15.93;;;;;;;;;;5050759;28;24429;-57
2021/12/08 10:41:07;;;;;;;20.70;17.37;;;;;;;;;;5051166;28;24412;-57
2021/12/08 10:43:32;;;;;;;20.58;16.60;;;;;;;;;;5042982;28;24994;-58
2021/12/08 10:46:07;;;;;;;21.07;17.43;;;;;;;;;;5042155;28;24486;-57
2021/12/08 10:48:37;;;;;;;23.40;18.35;;;;;;;;;;5052226;28;25038;-58
2021/12/08 10:56:42;;;;;;;22.67;19.30;;;;;;;;;;5064028;28;24548;-58
2021/12/08 10:59:07;;;;;;;24.20;18.83;;;;;;;;;;5060384;28;24512;-58
2021/12/08 11:01:34;;;;;;;23.07;19.57;;;;;;;;;;5064484;28;24756;-58
2021/12/08 11:04:01;;;;;;;22.55;19.10;;;;;;;;;;5050225;28;24414;-58
2021/12/08 11:06:34;;;;;;;21.88;19.38;;;;;;;;;;5049306;28;24415;-58
2021/12/08 11:08:59;;;;;;;23.73;18.90;;;;;;;;;;5056696;28;24453;-58
2021/12/08 11:11:31;;;;;;;22.15;18.23;;;;;;;;;;5060966;28;24832;-58
2021/12/08 11:13:57;;;;;;;19.90;17.67;;;;;;;;;;5056568;28;24515;-58
2021/12/08 11:16:23;;;;;;;23.02;18.67;;;;;;;;;;5056003;28;24533;-58
2021/12/08 11:18:50;;;;;;;19.87;17.33;;;;;;;;;;5058935;28;24817;-58
2021/12/08 11:21:19;;;;;;;20.75;17.70;;;;;;;;;;5060093;28;24982;-58
2021/12/08 11:23:46;;;;;;;21.52;17.83;;;;;;;;;;5058218;28;24458;-58
2021/12/08 11:26:17;;;;;;;25.30;19.77;;;;;;;;;;5055127;28;24955;-58
2021/12/08 11:28:44;;;;;;;22.90;19.23;;;;;;;;;;5044091;28;24415;-58
2021/12/08 11:31:09;;;;;;;25.60;21.20;;;;;;;;;;5060502;28;24468;-58
2021/12/08 11:33:37;;;;;;;23.73;19.80;;;;;;;;;;5050661;28;24504;-58
2021/12/08 11:36:10;;;;;;;23.13;17.67;;;;;;;;;;5061065;28;24817;-58
2021/12/08 11:38:36;;;;;;;24.95;19.65;;;;;;;;;;5058660;28;25036;-58
2021/12/08 11:41:01;;;;;;;22.10;18.90;;;;;;;;;;5046669;28;24502;-58
2021/12/08 11:43:27;;;;;;;21.60;17.83;;;;;;;;;;5061953;28;24419;-58
2021/12/08 11:45:53;;;;;;;23.65;19.88;;;;;;;;;;5061340;28;24453;-58
2021/12/08 11:48:22;;;;;;;23.75;19.80;;;;;;;;;;5050626;28;24446;-58
2021/12/08 11:50:47;;;;;;;25.98;21.33;;;;;;;;;;5037976;28;25025;-58
2021/12/08 11:53:19;;;;;;;24.37;19.83;;;;;;;;;;5056939;28;24410;-58
2021/12/08 11:55:44;;;;;;;26.65;21.52;;;;;;;;;;5061561;28;24419;-58
2021/12/08 11:58:11;;;;;;;27.30;21.50;;;;;;;;;;5062476;28;24843;-58
2021/12/08 12:00:39;;;;;;;23.70;19.17;;;;;;;;;;5057149;28;24418;-60
2021/12/08 12:03:07;;;;;;;24.33;19.50;;;;;;;;;;5053809;28;24426;-58
2021/12/08 12:05:37;;;;;;;25.50;21.35;;;;;;;;;;5046950;28;24423;-58
2021/12/08 12:08:03;;;;;;;27.48;20.85;;;;;;;;;;5056429;28;24827;-58
2021/12/08 12:10:30;;;;;;;28.40;22.20;;;;;;;;;;5055243;28;24445;-58
2021/12/08 12:12:56;;;;;;;27.35;21.55;;;;;;;;;;5054260;28;24462;-59
2021/12/08 12:15:21;;;;;;;26.40;21.00;;;;;;;;;;5059471;28;24973;-61
2021/12/08 12:17:47;;;;;;;27.45;22.15;;;;;;;;;;5054379;28;24492;-58
2021/12/08 12:20:23;;;;;;;27.92;21.45;;;;;;;;;;5058221;28;24410;-59
2021/12/08 12:23:07;;;;;;;25.45;20.80;;;;;;;;;;5054197;28;24407;-58
2021/12/08 12:25:50;;;;;;;26.27;20.20;;;;;;;;;;5072959;28;24799;-59
2021/12/08 12:28:31;;;;;;;28.85;21.02;;;;;;;;;;5045020;28;24498;-59
2021/12/08 12:31:10;;;;;;;26.88;21.15;;;;;;;;;;5063745;28;24457;-58
2021/12/08 12:33:42;;;;;;;26.65;21.10;;;;;;;;;;5060513;28;24504;-58
2021/12/08 12:36:17;;;;;;;25.75;20.48;;;;;;;;;;5049018;28;24435;-58
2021/12/08 12:38:44;;;;;;;27.00;21.42;;;;;;;;;;5054628;28;24434;-60
2021/12/08 12:41:21;;;;;;;24.67;19.40;;;;;;;;;;5059552;28;25041;-59
2021/12/08 12:43:49;;;;;;;25.45;19.90;;;;;;;;;;5058640;28;24517;-59
2021/12/08 12:46:16;;;;;;;28.02;21.73;;;;;;;;;;5052151;28;24425;-59
2021/12/08 12:48:42;;;;;;;26.40;21.42;;;;;;;;;;5062423;28;25030;-58
2021/12/08 12:51:08;;;;;;;27.45;21.38;;;;;;;;;;5063726;28;24426;-59
2021/12/08 12:53:45;;;;;;;28.33;20.33;;;;;;;;;;5071275;28;24554;-59
2021/12/08 12:56:12;;;;;;;23.35;18.17;;;;;;;;;;5055895;28;24441;-58
2021/12/08 12:58:39;;;;;;;26.17;19.92;;;;;;;;;;5053187;28;25118;-59
2021/12/08 13:01:06;;;;;;;26.67;21.23;;;;;;;;;;5055545;28;24510;-59
2021/12/08 13:03:36;;;;;;;25.88;19.40;;;;;;;;;;5057294;28;24915;-59
2021/12/08 13:06:01;;;;;;;23.48;19.00;;;;;;;;;;5058777;28;25145;-59
2021/12/08 13:08:34;;;;;;;27.02;20.38;;;;;;;;;;5067203;28;24780;-58
2021/12/08 13:11:01;;;;;;;26.38;20.70;;;;;;;;;;5047980;28;24943;-59
2021/12/08 13:13:27;;;;;;;27.02;20.70;;;;;;;;;;5058598;28;24430;-58
2021/12/08 13:15:52;;;;;;;27.87;20.70;;;;;;;;;;5061827;28;24816;-59
2021/12/08 13:18:18;;;;;;;26.77;20.27;;;;;;;;;;5071122;28;24482;-59
2021/12/08 13:20:47;;;;;;;29.60;21.45;;;;;;;;;;5055780;28;24406;-59
2021/12/08 13:23:13;;;;;;;28.45;20.98;;;;;;;;;;5056714;28;24426;-58
2021/12/08 13:25:49;;;;;;;26.52;20.73;;;;;;;;;;5044992;28;24427;-58
2021/12/08 13:28:15;;;;;;;27.73;22.00;;;;;;;;;;5053147;28;24407;-61
2021/12/08 13:30:48;;;;;;;29.42;22.95;;;;;;;;;;5051100;28;24434;-58
2021/12/08 13:33:22;;;;;;;29.83;21.93;;;;;;;;;;5053482;28;25018;-59
2021/12/08 13:35:47;;;;;;;29.33;21.67;;;;;;;;;;5061033;28;24534;-59
2021/12/08 13:38:12;;;;;;;28.40;21.00;;;;;;;;;;5053894;28;24502;-59
2021/12/08 13:40:43;;;;;;;27.97;20.20;;;;;;;;;;5047912;28;24963;-58
2021/12/08 13:43:09;;;;;;;28.55;21.00;;;;;;;;;;5048813;28;24522;-59
2021/12/08 13:45:41;;;;;;;27.75;20.88;;;;;;;;;;5047767;28;24411;-59
2021/12/08 13:48:07;;;;;;;28.10;21.08;;;;;;;;;;5059164;28;24506;-59
2021/12/08 13:50:34;;;;;;;26.73;20.47;;;;;;;;;;5055967;28;25393;-59
2021/12/08 13:53:06;;;;;;;28.42;21.40;;;;;;;;;;5053652;28;24489;-59
2021/12/08 13:55:32;;;;;;;27.95;21.98;;;;;;;;;;5045181;28;24442;-59
2021/12/08 13:58:03;;;;;;;29.60;21.93;;;;;;;;;;5059743;28;24515;-58
2021/12/08 14:00:30;;;;;;;30.07;21.83;;;;;;;;;;5049651;28;24464;-58
2021/12/08 14:03:06;;;;;;;28.65;21.70;;;;;;;;;;5050946;28;24496;-59
2021/12/08 14:05:34;;;;;;;27.42;20.65;;;;;;;;;;5048447;28;24514;-58
2021/12/08 14:08:02;;;;;;;31.70;21.75;;;;;;;;;;5050826;28;24510;-58
2021/12/08 14:10:30;;;;;;;29.70;22.67;;;;;;;;;;5059758;28;24434;-58
2021/12/08 14:12:55;;;;;;;28.80;20.42;;;;;;;;;;5055984;28;24499;-59
2021/12/08 14:15:22;;;;;;;34.27;24.50;;;;;;;;;;5043715;28;24582;-59
2021/12/08 14:17:49;;;;;;;31.27;22.40;;;;;;;;;;5046423;28;24502;-59
2021/12/08 14:20:28;;;;;;;29.95;21.83;;;;;;;;;;5046780;28;24413;-59
2021/12/08 14:22:54;;;;;;;30.90;22.40;;;;;;;;;;5053937;28;24954;-58
2021/12/08 14:25:29;;;;;;;29.07;21.47;;;;;;;;;;5079690;28;24426;-59
2021/12/08 14:27:54;;;;;;;28.88;21.48;;;;;;;;;;5059388;28;25045;-59
2021/12/08 14:30:20;;;;;;;28.98;20.40;;;;;;;;;;5061776;28;24510;-59
2021/12/08 14:32:58;;;;;;;32.67;22.83;;;;;;;;;;5058377;28;24465;-59
2021/12/08 14:35:23;;;;;;;32.35;22.30;;;;;;;;;;5082625;28;24529;-59
2021/12/08 14:37:48;;;;;;;28.98;22.02;;;;;;;;;;5061595;28;24507;-59
2021/12/08 14:40:16;;;;;;;28.30;21.67;;;;;;;;;;5048049;28;24480;-59
2021/12/08 14:42:41;;;;;;;29.75;21.45;;;;;;;;;;5076661;28;25015;-59
2021/12/08 14:45:08;;;;;;;30.00;21.48;;;;;;;;;;5054340;28;24541;-59
2021/12/08 14:47:51;;;;;;;26.40;21.20;;;;;;;;;;5059832;28;24773;-60
2021/12/08 14:50:20;;;;;;;28.90;21.42;;;;;;;;;;5066506;28;24777;-59
2021/12/08 14:52:45;;;;;;;30.33;21.73;;;;;;;;;;5057598;28;24564;-59
2021/12/08 14:55:14;;;;;;;29.80;22.40;;;;;;;;;;5055694;28;24604;-59
2021/12/08 14:57:40;;;;;;;29.67;22.25;;;;;;;;;;5056539;28;24994;-59
2021/12/08 15:00:10;;;;;;;29.75;21.50;;;;;;;;;;5062001;28;24427;-59
2021/12/08 15:02:38;;;;;;;30.17;22.42;;;;;;;;;;5054998;28;24407;-59